Time;durP1;ratioP1;P1;durP2;ratioP2;P2;SDS_P1;SDS_P2;PMS_P1;PMS_P2;Temp;Humidity;BMP_temperature;BMP_pressure;BME280_temperature;BME280_humidity;BME280_pressure;Samples;Min_cycle;Max_cycle;Signal;HPM_P1;HPM_P2
2022/08/28 22:25:34;;;;;;;;;;;;;;;;;;1052735;27;19990;-34
2022/08/28 22:26:05;;;;;;;;;;;;;;;;;;1052705;28;19968;-33
2022/08/28 22:26:36;;;;;;;;;;;;;;;;;;1052269;28;19992;-34
2022/08/28 22:27:09;;;;;;;;;;;;;;;;;;1052180;28;19975;-32
2022/08/28 22:27:40;;;;;;;;;;;;;;;;;;1052908;28;19970;-33
2022/08/28 22:28:11;;;;;;;;;;;;;;;;;;1052786;28;19960;-33
2022/08/28 22:28:42;;;;;;;;;;;;;;;;;;1053686;28;19959;-31
2022/08/28 22:29:13;;;;;;;;;;;;;;;;;;1052859;28;20436;-32
2022/08/28 22:29:45;;;;;;;;;;;;;;;;;;1053321;28;20423;-32
2022/08/28 22:30:16;;;;;;;;;;;;;;;;;;1053660;28;20408;-33
2022/08/28 22:30:47;;;;;;;;;;;;;;;;;;1052542;28;20317;-31
2022/08/28 22:31:18;;;;;;;;;;;;;;;;;;1053311;28;20282;-31
2022/08/28 22:31:49;;;;;;;;;;;;;;;;;;1053204;28;20357;-33
2022/08/28 22:32:24;;;;;;;;;;;;;;;;;;1053722;28;20412;-31
2022/08/28 22:32:55;;;;;;;;;;;;;;;;;;1052412;28;20025;-35
2022/08/28 22:33:26;;;;;;;;;;;;;;;;;;1052820;28;19967;-33
2022/08/28 22:33:57;;;;;;;;;;;;;;;;;;1053856;28;19970;-34
2022/08/28 22:34:28;;;;;;;;;;;;;;;;;;1052912;28;20016;-35
2022/08/28 22:35:00;;;;;;;;;;;;;;;;;;1053418;28;19967;-32
2022/08/28 22:35:31;;;;;;;;;;;;;;;;;;1053282;28;20286;-49
2022/08/28 22:36:02;;;;;;;;;;;;;;;;;;1053799;28;19924;-39
2022/08/28 22:36:33;;;;;;;;;;;;;;;;;;1053114;28;19919;-39
2022/08/28 22:37:04;;;;;;;;;;;;;;;;;;1053174;28;19920;-45
2022/08/28 22:37:36;;;;;;;;;;;;;;;;;;1053300;28;19963;-43
2022/08/28 22:38:07;;;;;;;;;;;;;;;;;;1053633;28;19959;-43
2022/08/28 22:38:38;;;;;;;;;;;;;;;;;;1053531;28;20402;-43
2022/08/28 22:39:10;;;;;;;;;;;;;;;;;;1053326;28;19967;-44
2022/08/28 22:39:41;;;;;;;;;;;;;;;;;;1053706;28;19968;-46
2022/08/28 22:40:12;;;;;;;;;;;;;;;;;;1053034;28;20308;-42
2022/08/28 22:40:43;;;;;;;;;;;;;;;;;;1053574;28;20028;-42
2022/08/28 22:41:14;;;;;;;;;;;;;;;;;;1053464;28;20665;-52
2022/08/28 22:41:45;;;;;;;;;;;;;;;;;;1053409;28;20048;-54
2022/08/28 22:42:16;;;;;;;;;;;;;;;;;;1053168;28;20438;-35
2022/08/28 22:42:49;;;;;;;;;;;;;;;;;;1052265;28;20750;-36
2022/08/28 22:43:20;;;;;;;;;;;;;;;;;;1053652;28;19958;-34
2022/08/28 22:43:51;;;;;;;;;;;;;;;;;;1053868;28;19966;-34
2022/08/28 22:44:22;;;;;;;;;;;;;;;;;;1053376;28;19959;-34
2022/08/28 22:44:54;;;;;;;;;;;;;;;;;;1053594;28;19959;-36
2022/08/28 22:45:25;;;;;;;;;;;;;;;;;;1053192;28;19968;-37
2022/08/28 22:45:56;;;;;;;;;;;;;;;;;;1053658;28;20332;-37
2022/08/28 22:46:27;;;;;;;;;;;;;;;;;;1053124;28;19967;-36
2022/08/28 22:46:58;;;;;;;;;;;;;;;;;;1053197;28;19968;-32
2022/08/28 22:47:30;;;;;;;;;;;;;;;;;;1053608;28;19974;-32
2022/08/28 22:48:02;;;;;;;;;;;;;;;;;;1052895;28;19960;-37
2022/08/28 22:48:33;;;;;;;;;;;;;;;;;;1053614;28;19955;-43
2022/08/28 22:49:04;;;;;;;;;;;;;;;;;;1053706;28;19983;-36
2022/08/28 22:49:35;;;;;;;;;;;;;;;;;;1053375;28;19974;-36
2022/08/28 22:50:07;;;;;;;;;;;;;;;;;;1052475;28;20069;-36
2022/08/28 22:50:38;;;;;;;;;;;;;;;;;;1051969;28;19959;-36
2022/08/28 22:51:11;;;;;;;;;;;;;;;;;;1052629;28;19955;-36
2022/08/28 22:51:42;;;;;;;;;;;;;;;;;;1053330;28;19971;-36
2022/08/28 22:52:14;;;;;;;;;;;;;;;;;;1053420;28;19963;-36
2022/08/28 22:52:45;;;;;;;;;;;;;;;;;;1052938;28;20290;-35
2022/08/28 22:53:16;;;;;;;;;;;;;;;;;;1053417;28;20124;-37
2022/08/28 22:53:47;;;;;;;;;;;;;;;;;;1053549;28;20100;-38
2022/08/28 22:54:19;;;;;;;;;;;;;;;;;;1053650;28;19963;-35
2022/08/28 22:54:50;;;;;;;;;;;;;;;;;;1052811;28;20081;-36
2022/08/28 22:55:21;;;;;;;;;;;;;;;;;;1053742;28;19994;-49
2022/08/28 22:55:52;;;;;;;;;;;;;;;;;;1051573;28;19971;-45
2022/08/28 22:56:23;;;;;;;;;;;;;;;;;;1053344;28;19963;-39
2022/08/28 22:56:54;;;;;;;;;;;;;;;;;;1053801;28;19971;-38
2022/08/28 22:57:26;;;;;;;;;;;;;;;;;;1053444;28;19971;-43
2022/08/28 22:57:57;;;;;;;;;;;;;;;;;;1053316;28;20425;-38
2022/08/28 22:58:28;;;;;;;;;;;;;;;;;;1052886;28;20385;-41
2022/08/28 22:58:59;;;;;;;;;;;;;;;;;;1053566;28;19967;-38
2022/08/28 22:59:31;;;;;;;;;;;;;;;;;;1053278;28;20028;-39
2022/08/28 23:00:03;;;;;;;;;;;;;;;;;;1053111;28;19990;-40
2022/08/28 23:00:34;;;;;;;;;;;;;;;;;;1053306;28;20009;-39
2022/08/28 23:01:05;;;;;;;;;;;;;;;;;;1053447;28;19972;-37
2022/08/28 23:01:36;;;;;;;;;;;;;;;;;;1053512;28;19971;-45
2022/08/28 23:02:07;;;;;;;;;;;;;;;;;;1054068;28;19971;-51
2022/08/28 23:02:39;;;;;;;;;;;;;;;;;;1053520;28;19967;-53
2022/08/28 23:03:10;;;;;;;;;;;;;;;;;;1052914;28;20042;-51
2022/08/28 23:03:41;;;;;;;;;;;;;;;;;;1054594;28;20097;-49
2022/08/28 23:04:12;;;;;;;;;;;;;;;;;;1055060;28;19982;-51
2022/08/28 23:04:43;;;;;;;;;;;;;;;;;;1053768;28;20027;-48
2022/08/28 23:05:14;;;;;;;;;;;;;;;;;;1054561;28;19974;-44
2022/08/28 23:05:45;;;;;;;;;;;;;;;;;;1054926;28;19971;-45
2022/08/28 23:06:17;;;;;;;;;;;;;;;;;;1054452;28;20032;-51
2022/08/28 23:06:48;;;;;;;;;;;;;;;;;;1054284;28;19982;-52
2022/08/28 23:07:19;;;;;;;;;;;;;;;;;;1053561;28;19974;-43
2022/08/28 23:07:50;;;;;;;;;;;;;;;;;;1054303;28;19982;-47
2022/08/28 23:08:22;;;;;;;;;;;;;;;;;;1052964;28;19979;-42
2022/08/28 23:08:53;;;;;;;;;;;;;;;;;;1054896;28;19981;-42
2022/08/28 23:09:24;;;;;;;;;;;;;;;;;;1054253;28;19963;-44
2022/08/28 23:09:55;;;;;;;;;;;;;;;;;;1054755;28;19971;-46
2022/08/28 23:10:27;;;;;;;;;;;;;;;;;;1053516;28;20025;-40
2022/08/28 23:10:58;;;;;;;;;;;;;;;;;;1053434;28;19990;-41
2022/08/28 23:11:30;;;;;;;;;;;;;;;;;;1054458;28;20352;-48
2022/08/28 23:12:01;;;;;;;;;;;;;;;;;;1053726;28;19982;-46
2022/08/28 23:12:33;;;;;;;;;;;;;;;;;;1054001;28;19967;-43
2022/08/28 23:13:04;;;;;;;;;;;;;;;;;;1053466;28;20308;-53
2022/08/28 23:13:36;;;;;;;;;;;;;;;;;;1053576;28;19967;-50
2022/08/28 23:14:07;;;;;;;;;;;;;;;;;;1053988;28;19920;-35
2022/08/28 23:14:38;;;;;;;;;;;;;;;;;;1053375;28;19920;-45
2022/08/28 23:15:09;;;;;;;;;;;;;;;;;;1053728;28;20401;-33
2022/08/28 23:15:40;;;;;;;;;;;;;;;;;;1053798;28;20061;-32
2022/08/28 23:16:11;;;;;;;;;;;;;;;;;;1053257;28;20049;-31
2022/08/28 23:16:43;;;;;;;;;;;;;;;;;;1053797;28;19968;-31
2022/08/28 23:17:15;;;;;;;;;;;;;;;;;;1053540;28;19983;-32
2022/08/28 23:17:47;;;;;;;;;;;;;;;;;;1053816;28;19970;-31
2022/08/28 23:18:19;;;;;;;;;;;;;;;;;;1053365;28;19967;-30
2022/08/28 23:18:50;;;;;;;;;;;;;;;;;;1053428;28;20367;-28
2022/08/28 23:19:21;;;;;;;;;;;;;;;;;;1053568;28;19967;-30
2022/08/28 23:19:52;;;;;;;;;;;;;;;;;;1053958;28;19971;-29
2022/08/28 23:20:24;;;;;;;;;;;;;;;;;;1053608;28;19983;-30
2022/08/28 23:20:55;;;;;;;;;;;;;;;;;;1053388;28;20408;-29
2022/08/28 23:21:27;;;;;;;;;;;;;;;;;;1053374;28;20324;-31
2022/08/28 23:21:58;;;;;;;;;;;;;;;;;;1053317;28;19970;-31
2022/08/28 23:22:30;;;;;;;;;;;;;;;;;;1053270;28;19977;-32
2022/08/28 23:23:01;;;;;;;;;;;;;;;;;;1052754;28;20385;-29
2022/08/28 23:23:32;;;;;;;;;;;;;;;;;;1053528;28;20469;-32
2022/08/28 23:24:04;;;;;;;;;;;;;;;;;;1053357;28;19979;-31
2022/08/28 23:24:35;;;;;;;;;;;;;;;;;;1053837;28;20325;-34
2022/08/28 23:25:06;;;;;;;;;;;;;;;;;;1052409;28;20702;-33
2022/08/28 23:25:38;;;;;;;;;;;;;;;;;;1052990;28;20658;-31
2022/08/28 23:26:09;;;;;;;;;;;;;;;;;;1052906;28;20562;-30
2022/08/28 23:26:40;;;;;;;;;;;;;;;;;;1053166;28;20393;-34
2022/08/28 23:27:11;;;;;;;;;;;;;;;;;;1052990;28;19967;-40
2022/08/28 23:27:42;;;;;;;;;;;;;;;;;;1053382;28;20024;-41
2022/08/28 23:28:13;;;;;;;;;;;;;;;;;;1051404;28;20010;-41
2022/08/28 23:28:45;;;;;;;;;;;;;;;;;;1053331;28;20419;-34
2022/08/28 23:30:14;;;;;;;;;;;;;;;;;;1056534;27;19992;-39
2022/08/28 23:30:45;;;;;;;;;;;;;;;;;;1057271;28;19959;-39
2022/08/28 23:31:16;;;;;;;;;;;;;;;;;;1056317;28;20020;-41
2022/08/28 23:31:47;;;;;;;;;;;;;;;;;;1057566;28;20012;-48
2022/08/28 23:32:18;;;;;;;;;;;;;;;;;;1057511;28;19971;-46
2022/08/28 23:32:49;;;;;;;;;;;;;;;;;;1057163;28;19963;-45
2022/08/28 23:33:20;;;;;;;;;;;;;;;;;;1054141;28;19963;-45
2022/08/28 23:33:52;;;;;;;;;;;;;;;;;;1056485;28;19971;-54
2022/08/28 23:34:23;;;;;;;;;;;;;;;;;;1056962;28;19967;-52
2022/08/28 23:34:54;;;;;;;;;;;;;;;;;;1055695;28;19975;-54
2022/08/28 23:35:25;;;;;;;;;;;;;;;;;;1055992;28;20432;-47
2022/08/28 23:35:56;;;;;;;;;;;;;;;;;;1057269;28;20301;-51
2022/08/28 23:36:28;;;;;;;;;;;;;;;;;;1057432;28;20285;-48
2022/08/28 23:36:59;;;;;;;;;;;;;;;;;;1057392;28;19966;-43
2022/08/28 23:37:30;;;;;;;;;;;;;;;;;;1056770;28;19963;-57
2022/08/28 23:38:01;;;;;;;;;;;;;;;;;;1058029;28;19966;-57
2022/08/28 23:38:32;;;;;;;;;;;;;;;;;;1057917;28;19967;-53
2022/08/28 23:39:03;;;;;;;;;;;;;;;;;;1057862;28;19978;-56
2022/08/28 23:39:34;;;;;;;;;;;;;;;;;;1057995;28;20401;-60
2022/08/28 23:40:06;;;;;;;;;;;;;;;;;;1056916;28;20410;-59
2022/08/28 23:40:38;;;;;;;;;;;;;;;;;;1056080;28;20364;-51
2022/08/28 23:41:09;;;;;;;;;;;;;;;;;;1056800;28;20054;-44
2022/08/28 23:41:40;;;;;;;;;;;;;;;;;;1057515;28;20065;-48
2022/08/28 23:42:11;;;;;;;;;;;;;;;;;;1056661;28;19966;-51
2022/08/28 23:42:42;;;;;;;;;;;;;;;;;;1058205;28;20053;-52
2022/08/28 23:43:13;;;;;;;;;;;;;;;;;;1057770;28;20062;-52
2022/08/28 23:43:44;;;;;;;;;;;;;;;;;;1056882;28;20057;-47
2022/08/28 23:44:16;;;;;;;;;;;;;;;;;;1057534;28;19962;-45
2022/08/28 23:44:47;;;;;;;;;;;;;;;;;;1057713;28;19971;-45
2022/08/28 23:45:18;;;;;;;;;;;;;;;;;;1057429;28;20560;-47
2022/08/28 23:45:50;;;;;;;;;;;;;;;;;;1057813;28;19959;-44
2022/08/28 23:46:21;;;;;;;;;;;;;;;;;;1057505;28;19970;-47
2022/08/28 23:46:52;;;;;;;;;;;;;;;;;;1057623;28;19970;-47
2022/08/28 23:47:24;;;;;;;;;;;;;;;;;;1057479;28;19967;-47
2022/08/28 23:47:55;;;;;;;;;;;;;;;;;;1057479;28;19967;-51
2022/08/28 23:48:26;;;;;;;;;;;;;;;;;;1057398;28;19962;-52
2022/08/28 23:48:57;;;;;;;;;;;;;;;;;;1056852;28;19977;-50
2022/08/28 23:49:28;;;;;;;;;;;;;;;;;;1056414;28;19971;-52
2022/08/28 23:49:59;;;;;;;;;;;;;;;;;;1058231;28;19962;-49
2022/08/28 23:50:30;;;;;;;;;;;;;;;;;;1056823;28;20057;-59
2022/08/28 23:51:02;;;;;;;;;;;;;;;;;;1057379;28;20057;-52
2022/08/28 23:51:33;;;;;;;;;;;;;;;;;;1057697;28;20074;-48
2022/08/28 23:52:04;;;;;;;;;;;;;;;;;;1057241;28;19971;-47
2022/08/28 23:52:35;;;;;;;;;;;;;;;;;;1057415;28;19963;-47
2022/08/28 23:53:06;;;;;;;;;;;;;;;;;;1057056;28;19967;-41
2022/08/28 23:53:37;;;;;;;;;;;;;;;;;;1057218;28;20028;-39
2022/08/28 23:54:08;;;;;;;;;;;;;;;;;;1055685;28;19967;-57
2022/08/28 23:54:39;;;;;;;;;;;;;;;;;;1057476;28;19967;-43
2022/08/28 23:55:11;;;;;;;;;;;;;;;;;;1057397;28;19993;-40
2022/08/28 23:55:42;;;;;;;;;;;;;;;;;;1057419;28;19975;-42
2022/08/28 23:56:13;;;;;;;;;;;;;;;;;;1057320;28;19966;-49
2022/08/28 23:56:44;;;;;;;;;;;;;;;;;;1056813;28;20289;-44
2022/08/28 23:57:40;;;;;;;;;;;;;;;;;;1060518;27;19982;-50
2022/08/28 23:58:11;;;;;;;;;;;;;;;;;;1061062;27;19970;-48
2022/08/28 23:58:44;;;;;;;;;;;;;;;;;;1060241;27;19986;-54
2022/08/28 23:59:15;;;;;;;;;;;;;;;;;;1060370;27;19969;-53
2022/08/28 23:59:46;;;;;;;;;;;;;;;;;;1061310;27;19969;-55
